Nearby METAR Reports

 

KIAG - Niagara Falls, New York, USA
Distance from station: W 12mi, 20km
Updated: 01/21/2017 11:53am
Fog, Overcast
Fog, Overcast
 Wind from E
Wind: E 3 mph , 6 km/h
Temperature: 48°F , 9°C
Dew Point: 45°F , 7°C
Humidity: 87%
Barometer: 1007.5 hPa
Summary: Fog
Clouds: Overcast
Visibility: 1/2 mile , 2 km
Cloud details: Overcast 200 ft
2017/01/21 16:53 KIAG 211653Z 09003KT 1/2SM R28R/2400V4000FT FG VV002 09/07 A2975 RMK AO2 SLP082 T00890072
KBUF - Buffalo/Cheektow, New York, USA
Distance from station: S 13mi, 21km
Updated: 01/21/2017 11:54am
Overcast
Overcast
 Wind from calm
Wind: Calm
Temperature: 54°F , 12°C
Dew Point: 46°F , 8°C
Humidity: 77%
Barometer: 1007.5 hPa
Clouds: Overcast
Visibility: 10 miles , 16 km
Cloud details: Overcast 6000 ft
2017/01/21 16:54 KBUF 211654Z 00000KT 10SM OVC060 12/08 A2975 RMK AO2 SLP077 T01170083
 
KROC - Rochester, New York, USA
Distance from station: E 51mi, 82km
Updated: 01/21/2017 11:54am
Mist, Overcast
Mist, Overcast
 Wind from calm
Wind: Calm
Temperature: 48°F , 9°C
Dew Point: 46°F , 8°C
Humidity: 94%
Barometer: 1008.1 hPa
Summary: Mist
Clouds: Overcast
Visibility: 6 miles , 10 km
Cloud details: Mostly cloudy 400 ft
Overcast 10000 ft
2017/01/21 16:54 KROC 211654Z 00000KT 6SM BR BKN004 OVC100 09/08 A2977 RMK AO2 SLP087 T00890078
CYSN - St. Catharines A, Ontario, Canada
Distance from station: WNW 25mi, 40km
Updated: 01/21/2017 12:00pm
Fog, Overcast
Fog, Overcast
 Wind from NE
Wind: NE 5 mph , 7 km/h
Temperature: 43°F , 6°C
Wind Chill: 40°F , 4°C
Dew Point: 43°F , 6°C
Humidity: 100%
Barometer: 1007.5 hPa
Summary: Fog
Clouds: Overcast
Visibility: 0 miles , 0 km
Cloud details: Overcast 100 ft
2017/01/21 17:00 CYSN 211700Z 04004KT 0SM FG VV001 06/06 A2975 RMK FG8 SLP079
 
KOLE - Olean, New York, USA
Distance from station: SSE 63mi, 102km
Updated: 01/21/2017 11:55am
Fog, Overcast
Fog, Overcast
 Wind from S
Wind: S 5 mph , 7 km/h
Temperature: 45°F , 7°C
Wind Chill: 42°F , 6°C
Dew Point: 45°F , 7°C
Humidity: 100%
Barometer: 1008.1 hPa
Summary: Fog
Clouds: Overcast
Visibility: 1/4 mile , 2 km
Cloud details: Overcast 100 ft
2017/01/21 16:55 KOLE 211655Z AUTO 19004KT 1/4SM FG OVC001 07/07 A2977 RMK AO2
KJHW - Jamestown, New York, USA
Distance from station: SSW 74mi, 119km
Updated: 01/21/2017 12:15pm
Mostly cloudy
Mostly cloudy
 Wind from SSE
Wind: SSE 5 mph , 7 km/h
Temperature: 48°F , 9°C
Wind Chill: 46°F , 8°C
Dew Point: 46°F , 8°C
Humidity: 94%
Barometer: 1007.1 hPa
Clouds: Mostly cloudy
Visibility: 10 miles , 16 km
Cloud details: Partly cloudy 600 ft
Mostly cloudy 4700 ft
Mostly cloudy 5000 ft
2017/01/21 17:15 KJHW 211715Z AUTO 16004KT 10SM SCT006 BKN047 BKN050 09/08 A2974 RMK AO1
 
CWWZ - Port Weller (mar, Ontario, Canada
Distance from station: WNW 28mi, 45km
Updated: 01/21/2017 12:00pm

 Wind from ENE
Wind: ENE 6 mph , 9 km/h
Temperature: 37°F , 3°C
Wind Chill: 32°F , 0°C
Dew Point: 37°F , 3°C
Humidity: 100%
2017/01/21 17:00 CWWZ 211700Z AUTO 07005KT 03/03 RMK AO1 SLP083 T00320026 58011
CWPC - Port Colborne(Au, Ontario, Canada
Distance from station: WSW 33mi, 53km
Updated: 01/21/2017 12:00pm

 Wind from ENE
Wind: ENE 2 mph , 4 km/h
Temperature: 46°F , 8°C
Dew Point: 46°F , 8°C
Humidity: 100%
2017/01/21 17:00 CWPC 211700Z AUTO 07002KT 08/08 RMK AO1 SLP079 T00830075 58009
 
CXVN - Vineland (au8), Ontario, Canada
Distance from station: W 36mi, 58km
Updated: 01/21/2017 12:00pm

 Wind from NNE
Wind: NNE 3 mph , 6 km/h
Temperature: 39°F , 4°C
Dew Point: 39°F , 4°C
Humidity: 100%
2017/01/21 17:00 CXVN 211700Z AUTO 03003KT 04/04 RMK AO1 SOG 01 8005 SLP075 T00440039
CYTZ - Toronto Il Vor, Ontario, Canada
Distance from station: NW 50mi, 81km
Updated: 01/21/2017 12:00pm
Mist, Overcast
Mist, Overcast
 Wind from E
Wind: E 5 mph , 7 km/h
Temperature: 39°F , 4°C
Wind Chill: 35°F , 2°C
Dew Point: 37°F , 3°C
Humidity: 93%
Barometer: 1007.8 hPa
Summary: Mist
Clouds: Overcast
Visibility: 3 miles , 5 km
Cloud details: Overcast 800 ft
2017/01/21 17:00 CYTZ 211700Z AUTO 08004KT 3SM BR OVC008 04/03 A2976 RMK SLP083
 
CXTO - Toronto City, Ontario, Canada
Distance from station: NW 52mi, 84km
Updated: 01/21/2017 12:00pm

 
Temperature: 43°F , 6°C
Dew Point: 39°F , 4°C
Humidity: 87%
2017/01/21 17:00 CXTO 211700Z AUTO 06/04 RMK AO1 SLP076 T00600037 58010
KDKK - Dunkirk, New York, USA
Distance from station: SW 52mi, 84km
Updated: 01/21/2017 11:53am
Overcast
Overcast
 Wind from S
Wind: S 13 mph , 20 km/h
Temperature: 54°F , 12°C
Dew Point: 48°F , 9°C
Humidity: 82%
Barometer: 1007.1 hPa
Clouds: Overcast
Visibility: 10 miles , 16 km
Cloud details: Partly cloudy 4900 ft
Overcast 6000 ft
2017/01/21 16:53 KDKK 211653Z AUTO 18011KT 10SM SCT049 OVC060 12/09 A2974 RMK AO2 SLP073 T01220094
 
CYOO - Oshawa, Ontario, Canada
Distance from station: N 56mi, 90km
Updated: 01/21/2017 12:00pm
Mist, Overcast
Mist, Overcast
 Wind from NNE
Wind: NNE 5 mph , 7 km/h
Temperature: 39°F , 4°C
Wind Chill: 35°F , 2°C
Dew Point: 39°F , 4°C
Humidity: 100%
Barometer: 1007.8 hPa
Summary: Mist
Clouds: Overcast
Visibility: 3 miles , 5 km
Cloud details: Overcast 500 ft
2017/01/21 17:00 CYOO 211700Z AUTO 03004KT 3SM BR OVC005 04/04 A2976 RMK PRESFR SLP085
CWWB - Burlington Piers, Ontario, Canada
Distance from station: WNW 56mi, 91km
Updated: 01/21/2017 12:00pm

 Wind from ENE
Wind: ENE 3 mph , 6 km/h
Temperature: 39°F , 4°C
Dew Point: 37°F , 3°C
Humidity: 93%
2017/01/21 17:00 CWWB 211700Z AUTO 06003KT 04/03 RMK AO1 SLP080 T00380029 58003
 
CYYZ - Toronto/Pearson, Ontario, Canada
Distance from station: NW 60mi, 96km
Updated: 01/21/2017 12:00pm
Mist, Overcast
Mist, Overcast
 Wind from varies
Wind: varies 2 mph , 4 km/h
Temperature: 41°F , 5°C
Dew Point: 39°F , 4°C
Humidity: 93%
Barometer: 1007.5 hPa
Summary: Mist
Clouds: Overcast
Visibility: 5 miles , 8 km
Cloud details: Overcast 600 ft
2017/01/21 17:00 CYYZ 211700Z VRB02KT 5SM BR OVC006 05/04 A2975 RMK SC8 SLP082
CYKZ - Toronto Buttonvi, Ontario, Canada
Distance from station: NW 62mi, 99km
Updated: 01/21/2017 12:00pm
Mist, Overcast
Mist, Overcast
 Wind from varies
Wind: varies 2 mph , 4 km/h
Temperature: 39°F , 4°C
Dew Point: 37°F , 3°C
Humidity: 93%
Barometer: 1007.8 hPa
Summary: Mist
Clouds: Overcast
Visibility: 1 1/2 miles , 2 km
Cloud details: Overcast 200 ft
2017/01/21 17:00 CYKZ 211700Z VRB02KT 1 1/2SM BR OVC002 04/03 A2976 RMK FG2ST6 SLP085
 
CXHM - Hamilton Rbg Cs, Ontario, Canada
Distance from station: W 62mi, 100km
Updated: 01/21/2017 12:00pm

 Wind from ESE
Wind: ESE 2 mph , 4 km/h
Temperature: 41°F , 5°C
2017/01/21 17:00 CXHM 211700Z AUTO 11002KT 05/ RMK AO1 SLP074 T0046 58005
KDSV - Dansville, New York, USA
Distance from station: SE 62mi, 100km
Updated: 01/21/2017 11:54am
Clear
Clear
 Wind from SE
Wind: SE 7 mph , 11 km/h
Temperature: 57°F , 14°C
Dew Point: 46°F , 8°C
Humidity: 67%
Barometer: 1007.5 hPa
Clouds: Clear
Visibility: 10 miles , 16 km
2017/01/21 16:54 KDSV 211654Z AUTO 14006KT 10SM CLR 14/08 A2975 RMK AO2 SLP084 T01390083
 
CYHM - Hamilton Airport, Ontario, Canada
Distance from station: W 63mi, 101km
Updated: 01/21/2017 12:00pm
Fog, Overcast
Fog, Overcast
 Wind from ENE
Wind: ENE 7 mph , 11 km/h
Temperature: 41°F , 5°C
Wind Chill: 36°F , 2°C
Dew Point: 41°F , 5°C
Humidity: 100%
Barometer: 1007.1 hPa
Summary: Fog
Clouds: Overcast
Visibility: 1/8 mile , 2 km
Cloud details: Overcast 200 ft
2017/01/21 17:00 CYHM 211700Z 07006KT 1/8SM R12/1200FT/N FG VV002 05/05 A2974 RMK FG8 SLP078
CWNC - Cobourg (mars), Ontario, Canada
Distance from station: NNE 63mi, 102km
Updated: 01/21/2017 12:00pm

 Wind from W
Wind: W 3 mph , 6 km/h
Temperature: 39°F , 4°C
Dew Point: 37°F , 3°C
Humidity: 93%
2017/01/21 17:00 CWNC 211700Z AUTO 26003KT 04/03 RMK AO1 SOG 00 8006 SLP083 T00430028